Maersk Missouri — WAHV — position and weather

sailwx.info

Track history (hours):
 
Tides and Currents Weather Stations Pressure Air Temp Water Temp Dewpoint Dewpoint Depression Visibility Wind Speed Wind Dir Waves Ship Positions

Maersk Missouri

More information available from US FCC via Universal Licensing System and Coast Guard Vessel Documentation Center.

Last reported at 2014-Sep-03 00:00 UTC. Time now 2014-Sep-03 07:14 UTC.
Position N 41°18' W 056°36'.

Type: Cargo ship. MMSI: 369708000.

Wind from 170 at 9 knots

Waves 0.5 meters (2 feet), 5 second period

Barometer 1019.9 mb
Air temperature 22.0 ° C
Visibility: greater than 10.8 NM
Dewpoint 18.9 ° C
Water temperature 23.0 ° C

Date/timePositionNaut miles runAvg speedWind from/ knotsBaromVisibWave heightAir tempDewpointWater temp
2014-Sep-03 00:00N 41°18' W 056°36'29516.4 170 / 91019.910.8 0.522.018.923.0
2014-Sep-02 06:00N 40°06' W 062°54'10617.6 250 / 181020.910.8 1.523.521.222.0
2014-Sep-02 00:00N 40°00' W 065°12'20717.3 240 / 201020.910.8 1.024.021.024.7
2014-Sep-01 12:00N 39°54' W 069°42'3419.5 330 / 231021.310.8 2.024.022.524.2
2014-Sep-01 10:15N 39°60' W 070°26'1217.5
2014-Sep-01 09:33N 39°60' W 070°41'1817.6
2014-Sep-01 08:33N 40°00' W 071°04'1817.5
2014-Sep-01 07:32N 39°60' W 071°28'1717.7
2014-Sep-01 06:33N 40°00' W 071°50'713.0
2014-Sep-01 06:00N 40°00' W 072°00'1124.6 240 / 241020.010.8 1.523.121.822.9
2014-Sep-01 05:33N 40°01' W 072°14'1818.2
2014-Sep-01 04:34N 40°01' W 072°38'1818.0
2014-Sep-01 03:33N 40°01' W 073°01'2416.1
2014-Sep-01 02:03N 40°11' W 073°30'917.6
2014-Sep-01 01:33N 40°18' W 073°38'1414.2
2014-Sep-01 00:33N 40°28' W 073°51'1615.2
2014-Aug-31 23:31N 40°39' W 074°05'3 1.4
2014-Aug-31 21:25N 40°40' W 074°09'0 0.0
2014-Aug-31 20:28N 40°40' W 074°09'0 0.0
2014-Aug-31 19:32N 40°40' W 074°09'0 0.0
2014-Aug-31 18:32N 40°40' W 074°09'0 0.0
2014-Aug-31 17:27N 40°40' W 074°09'0 0.0
2014-Aug-31 16:28N 40°40' W 074°09'0 0.0
2014-Aug-31 15:31N 40°40' W 074°09'0 0.0
2014-Aug-31 11:07N 40°40' W 074°09'0 0.1
2014-Aug-31 10:33N 40°40' W 074°09'5 4.6
2014-Aug-31 09:32N 40°38' W 074°03'1010.4
2014-Aug-31 08:33N 40°29' W 073°55'1010.1
2014-Aug-31 07:33N 40°22' W 073°46'1 0.7
2014-Aug-31 06:30N 40°21' W 073°46'0 0.0
2014-Aug-31 05:31N 40°21' W 073°46'0 0.0
2014-Aug-31 04:19N 40°21' W 073°46'0 0.0
2014-Aug-31 03:32N 40°21' W 073°46'0 0.0
2014-Aug-31 02:33N 40°21' W 073°46'0 0.0
2014-Aug-31 01:33N 40°21' W 073°46'0 0.0
2014-Aug-31 00:28N 40°21' W 073°46'0 0.0
2014-Aug-30 23:32N 40°21' W 073°46'0 0.0
2014-Aug-30 22:09N 40°21' W 073°46'0 0.0
2014-Aug-30 21:21N 40°21' W 073°46'1 0.7
2014-Aug-30 20:33N 40°21' W 073°46'1111.2
2014-Aug-30 19:33N 40°10' W 073°45'1212.0
2014-Aug-30 18:33N 39°58' W 073°43'1312.1
2014-Aug-30 17:30N 39°45' W 073°42'1212.2
2014-Aug-30 16:33N 39°33' W 073°42'8 8.2
2014-Aug-30 15:31N 39°25' W 073°46'6 6.2
2014-Aug-30 14:33N 39°20' W 073°49'1313.0
2014-Aug-30 13:31N 39°08' W 073°56'1612.3
2014-Aug-30 12:13N 38°53' W 074°05'14811.5
2014-Aug-29 23:19N 36°51' W 075°50'1012.6
2014-Aug-29 22:31N 36°57' W 075°60'1313.7
2014-Aug-29 21:33N 37°00' W 076°16'9 9.0
2014-Aug-29 20:33N 36°52' W 076°21'0 0.0
2014-Aug-29 19:30N 36°52' W 076°21'0 0.0
2014-Aug-29 16:29N 36°52' W 076°21'0 0.0
2014-Aug-29 15:15N 36°52' W 076°21'0 0.0
2014-Aug-29 14:22N 36°52' W 076°21'0 0.0
2014-Aug-29 13:22N 36°52' W 076°21'0 0.0
2014-Aug-29 12:25N 36°52' W 076°21'0 0.0
2014-Aug-29 10:26N 36°52' W 076°21'4 4.3
2014-Aug-29 09:33N 36°56' W 076°20'1211.5
2014-Aug-29 08:30N 36°58' W 076°05'1312.8
2014-Aug-29 07:31N 36°52' W 075°52'8 1.9
2014-Aug-29 03:24N 36°51' W 075°42'0 0.0
2014-Aug-28 15:26N 36°51' W 075°42'73 7.9
2014-Aug-28 06:11N 35°43' W 075°07'737.8
2014-Aug-28 06:00N 35°36' W 075°06'0 1.1 320 / 121015.210.8 1.023.019.627.5
2014-Aug-28 05:33N 35°36' W 075°05'1211.7
2014-Aug-28 04:33N 35°24' W 075°05'1212.5
2014-Aug-28 03:34N 35°12' W 075°05'2713.5
2014-Aug-28 01:33N 34°45' W 075°10'2415.2
2014-Aug-28 00:00N 34°24' W 075°24'5412.0 350 / 301014.010.8 2.525.321.629.2
2014-Aug-27 19:27N 33°44' W 076°09'  
2014-Aug-25 15:26N 26°57' W 079°45'1719.4
2014-Aug-25 14:33N 26°40' W 079°46'1919.0
2014-Aug-25 13:33N 26°21' W 079°47'1918.9
2014-Aug-25 12:34N 26°02' W 079°49'1818.0
2014-Aug-25 11:34N 25°45' W 079°53'2718.6
2014-Aug-25 10:08N 25°19' W 079°59'38513.7
2014-Aug-24 06:00N 28°12' W 086°24'10517.5 280 / 81016.110.8 0.529.824.731.3
2014-Aug-24 00:00N 29°36' W 087°36'   250 / 111015.910.8 0.531.224.631.0
Track history (hours):
 
Tides and Currents Weather Stations Pressure Air Temp Water Temp Dewpoint Dewpoint Depression Visibility Wind Speed Wind Dir Waves Ship Positions

Maersk Missouri

More information available from US FCC via Universal Licensing System and Coast Guard Vessel Documentation Center.

Last reported at 2014-Sep-03 00:00 UTC. Time now 2014-Sep-03 07:14 UTC.
Position N 41°18' W 056°36'.

Type: Cargo ship. MMSI: 369708000.

Wind from 170 at 9 knots

Waves 0.5 meters (2 feet), 5 second period

Barometer 1019.9 mb
Air temperature 22.0 ° C
Visibility: greater than 10.8 NM
Dewpoint 18.9 ° C
Water temperature 23.0 ° C

Date/timePositionNaut miles runAvg speedWind from/ knotsBaromVisibWave heightAir tempDewpointWater temp
2014-Sep-03 00:00N 41°18' W 056°36'29516.4 170 / 91019.910.8 0.522.018.923.0
2014-Sep-02 06:00N 40°06' W 062°54'10617.6 250 / 181020.910.8 1.523.521.222.0
2014-Sep-02 00:00N 40°00' W 065°12'20717.3 240 / 201020.910.8 1.024.021.024.7
2014-Sep-01 12:00N 39°54' W 069°42'3419.5 330 / 231021.310.8 2.024.022.524.2
2014-Sep-01 10:15N 39°60' W 070°26'1217.5
2014-Sep-01 09:33N 39°60' W 070°41'1817.6
2014-Sep-01 08:33N 40°00' W 071°04'1817.5
2014-Sep-01 07:32N 39°60' W 071°28'1717.7
2014-Sep-01 06:33N 40°00' W 071°50'713.0
2014-Sep-01 06:00N 40°00' W 072°00'1124.6 240 / 241020.010.8 1.523.121.822.9
2014-Sep-01 05:33N 40°01' W 072°14'1818.2
2014-Sep-01 04:34N 40°01' W 072°38'1818.0
2014-Sep-01 03:33N 40°01' W 073°01'2416.1
2014-Sep-01 02:03N 40°11' W 073°30'917.6
2014-Sep-01 01:33N 40°18' W 073°38'1414.2
2014-Sep-01 00:33N 40°28' W 073°51'1615.2
2014-Aug-31 23:31N 40°39' W 074°05'3 1.4
2014-Aug-31 21:25N 40°40' W 074°09'0 0.0
2014-Aug-31 20:28N 40°40' W 074°09'0 0.0
2014-Aug-31 19:32N 40°40' W 074°09'0 0.0
2014-Aug-31 18:32N 40°40' W 074°09'0 0.0
2014-Aug-31 17:27N 40°40' W 074°09'0 0.0
2014-Aug-31 16:28N 40°40' W 074°09'0 0.0
2014-Aug-31 15:31N 40°40' W 074°09'0 0.0
2014-Aug-31 11:07N 40°40' W 074°09'0 0.1
2014-Aug-31 10:33N 40°40' W 074°09'5 4.6
2014-Aug-31 09:32N 40°38' W 074°03'1010.4
2014-Aug-31 08:33N 40°29' W 073°55'1010.1
2014-Aug-31 07:33N 40°22' W 073°46'1 0.7
2014-Aug-31 06:30N 40°21' W 073°46'0 0.0
2014-Aug-31 05:31N 40°21' W 073°46'0 0.0
2014-Aug-31 04:19N 40°21' W 073°46'0 0.0
2014-Aug-31 03:32N 40°21' W 073°46'0 0.0
2014-Aug-31 02:33N 40°21' W 073°46'0 0.0
2014-Aug-31 01:33N 40°21' W 073°46'0 0.0
2014-Aug-31 00:28N 40°21' W 073°46'0 0.0
2014-Aug-30 23:32N 40°21' W 073°46'0 0.0
2014-Aug-30 22:09N 40°21' W 073°46'0 0.0
2014-Aug-30 21:21N 40°21' W 073°46'1 0.7
2014-Aug-30 20:33N 40°21' W 073°46'1111.2
2014-Aug-30 19:33N 40°10' W 073°45'1212.0
2014-Aug-30 18:33N 39°58' W 073°43'1312.1
2014-Aug-30 17:30N 39°45' W 073°42'1212.2
2014-Aug-30 16:33N 39°33' W 073°42'8 8.2
2014-Aug-30 15:31N 39°25' W 073°46'6 6.2
2014-Aug-30 14:33N 39°20' W 073°49'1313.0
2014-Aug-30 13:31N 39°08' W 073°56'1612.3
2014-Aug-30 12:13N 38°53' W 074°05'14811.5
2014-Aug-29 23:19N 36°51' W 075°50'1012.6
2014-Aug-29 22:31N 36°57' W 075°60'1313.7
2014-Aug-29 21:33N 37°00' W 076°16'9 9.0
2014-Aug-29 20:33N 36°52' W 076°21'0 0.0
2014-Aug-29 19:30N 36°52' W 076°21'0 0.0
2014-Aug-29 16:29N 36°52' W 076°21'0 0.0
2014-Aug-29 15:15N 36°52' W 076°21'0 0.0
2014-Aug-29 14:22N 36°52' W 076°21'0 0.0
2014-Aug-29 13:22N 36°52' W 076°21'0 0.0
2014-Aug-29 12:25N 36°52' W 076°21'0 0.0
2014-Aug-29 10:26N 36°52' W 076°21'4 4.3
2014-Aug-29 09:33N 36°56' W 076°20'1211.5
2014-Aug-29 08:30N 36°58' W 076°05'1312.8
2014-Aug-29 07:31N 36°52' W 075°52'8 1.9
2014-Aug-29 03:24N 36°51' W 075°42'0 0.0
2014-Aug-28 15:26N 36°51' W 075°42'73 7.9
2014-Aug-28 06:11N 35°43' W 075°07'737.8
2014-Aug-28 06:00N 35°36' W 075°06'0 1.1 320 / 121015.210.8 1.023.019.627.5
2014-Aug-28 05:33N 35°36' W 075°05'1211.7
2014-Aug-28 04:33N 35°24' W 075°05'1212.5
2014-Aug-28 03:34N 35°12' W 075°05'2713.5
2014-Aug-28 01:33N 34°45' W 075°10'2415.2
2014-Aug-28 00:00N 34°24' W 075°24'5412.0 350 / 301014.010.8 2.525.321.629.2
2014-Aug-27 19:27N 33°44' W 076°09'  
2014-Aug-25 15:26N 26°57' W 079°45'1719.4
2014-Aug-25 14:33N 26°40' W 079°46'1919.0
2014-Aug-25 13:33N 26°21' W 079°47'1918.9
2014-Aug-25 12:34N 26°02' W 079°49'1818.0
2014-Aug-25 11:34N 25°45' W 079°53'2718.6
2014-Aug-25 10:08N 25°19' W 079°59'38513.7
2014-Aug-24 06:00N 28°12' W 086°24'10517.5 280 / 81016.110.8 0.529.824.731.3
2014-Aug-24 00:00N 29°36' W 087°36'   250 / 111015.910.8 0.531.224.631.0

Dump ship's entire track history